sensor_id;sensor_type;location;lat;lon;timestamp;P1;durP1;ratioP1;P2;durP2;ratioP2
8349;SDS011;60699;48.946;8.412;2022-08-19T00:00:07;11.30;;;9.37;;
8349;SDS011;60699;48.946;8.412;2022-08-19T00:02:35;11.93;;;10.73;;
8349;SDS011;60699;48.946;8.412;2022-08-19T00:05:03;12.40;;;10.30;;
8349;SDS011;60699;48.946;8.412;2022-08-19T00:07:30;12.20;;;10.07;;
8349;SDS011;60699;48.946;8.412;2022-08-19T00:09:58;14.47;;;10.50;;
8349;SDS011;60699;48.946;8.412;2022-08-19T00:12:26;12.73;;;9.80;;
8349;SDS011;60699;48.946;8.412;2022-08-19T00:14:53;11.10;;;9.30;;
8349;SDS011;60699;48.946;8.412;2022-08-19T00:17:20;11.43;;;10.23;;
8349;SDS011;60699;48.946;8.412;2022-08-19T00:19:47;11.17;;;8.97;;
8349;SDS011;60699;48.946;8.412;2022-08-19T00:22:14;16.10;;;10.17;;
8349;SDS011;60699;48.946;8.412;2022-08-19T00:24:42;14.10;;;10.20;;
8349;SDS011;60699;48.946;8.412;2022-08-19T00:27:11;12.50;;;10.13;;
8349;SDS011;60699;48.946;8.412;2022-08-19T00:29:38;12.27;;;9.70;;
8349;SDS011;60699;48.946;8.412;2022-08-19T00:32:06;12.27;;;9.87;;
8349;SDS011;60699;48.946;8.412;2022-08-19T00:34:33;12.30;;;10.03;;
8349;SDS011;60699;48.946;8.412;2022-08-19T00:37:00;13.03;;;10.13;;
8349;SDS011;60699;48.946;8.412;2022-08-19T00:39:27;11.50;;;10.33;;
8349;SDS011;60699;48.946;8.412;2022-08-19T00:41:55;15.13;;;10.87;;
8349;SDS011;60699;48.946;8.412;2022-08-19T00:44:25;12.43;;;10.80;;
8349;SDS011;60699;48.946;8.412;2022-08-19T00:46:52;11.97;;;10.67;;
8349;SDS011;60699;48.946;8.412;2022-08-19T00:49:20;14.73;;;11.60;;
8349;SDS011;60699;48.946;8.412;2022-08-19T00:51:53;13.00;;;11.60;;
8349;SDS011;60699;48.946;8.412;2022-08-19T00:54:21;15.00;;;11.27;;
8349;SDS011;60699;48.946;8.412;2022-08-19T00:56:49;12.63;;;11.17;;
8349;SDS011;60699;48.946;8.412;2022-08-19T00:59:16;11.53;;;10.13;;
8349;SDS011;60699;48.946;8.412;2022-08-19T01:01:46;13.13;;;10.40;;
8349;SDS011;60699;48.946;8.412;2022-08-19T01:04:13;12.13;;;10.83;;
8349;SDS011;60699;48.946;8.412;2022-08-19T01:06:40;12.30;;;10.53;;
8349;SDS011;60699;48.946;8.412;2022-08-19T01:09:07;14.77;;;11.70;;
8349;SDS011;60699;48.946;8.412;2022-08-19T01:11:36;11.33;;;10.10;;
8349;SDS011;60699;48.946;8.412;2022-08-19T01:14:04;13.03;;;11.23;;
8349;SDS011;60699;48.946;8.412;2022-08-19T01:16:32;11.87;;;10.57;;
8349;SDS011;60699;48.946;8.412;2022-08-19T01:19:01;12.63;;;11.40;;
8349;SDS011;60699;48.946;8.412;2022-08-19T01:21:29;12.57;;;10.47;;
8349;SDS011;60699;48.946;8.412;2022-08-19T01:23:58;18.10;;;10.80;;
8349;SDS011;60699;48.946;8.412;2022-08-19T01:26:26;16.03;;;12.87;;
8349;SDS011;60699;48.946;8.412;2022-08-19T01:28:54;15.63;;;11.27;;
8349;SDS011;60699;48.946;8.412;2022-08-19T01:31:22;13.07;;;10.67;;
8349;SDS011;60699;48.946;8.412;2022-08-19T01:33:50;12.77;;;10.00;;
8349;SDS011;60699;48.946;8.412;2022-08-19T01:36:21;14.33;;;11.77;;
8349;SDS011;60699;48.946;8.412;2022-08-19T01:38:50;13.57;;;10.87;;
8349;SDS011;60699;48.946;8.412;2022-08-19T01:41:18;14.00;;;11.23;;
8349;SDS011;60699;48.946;8.412;2022-08-19T01:43:48;15.77;;;12.70;;
8349;SDS011;60699;48.946;8.412;2022-08-19T01:46:15;15.10;;;11.57;;
8349;SDS011;60699;48.946;8.412;2022-08-19T01:48:42;15.30;;;11.17;;
8349;SDS011;60699;48.946;8.412;2022-08-19T01:51:09;14.00;;;11.00;;
8349;SDS011;60699;48.946;8.412;2022-08-19T01:53:37;14.43;;;11.97;;
8349;SDS011;60699;48.946;8.412;2022-08-19T01:56:05;18.10;;;13.30;;
8349;SDS011;60699;48.946;8.412;2022-08-19T01:58:33;15.77;;;12.53;;
8349;SDS011;60699;48.946;8.412;2022-08-19T02:01:02;13.23;;;11.10;;
8349;SDS011;60699;48.946;8.412;2022-08-19T02:03:29;15.10;;;12.37;;
8349;SDS011;60699;48.946;8.412;2022-08-19T02:05:56;15.07;;;10.80;;
8349;SDS011;60699;48.946;8.412;2022-08-19T02:08:24;14.57;;;12.03;;
8349;SDS011;60699;48.946;8.412;2022-08-19T02:10:51;13.20;;;11.50;;
8349;SDS011;60699;48.946;8.412;2022-08-19T02:13:18;16.30;;;12.00;;
8349;SDS011;60699;48.946;8.412;2022-08-19T02:15:47;14.33;;;11.30;;
8349;SDS011;60699;48.946;8.412;2022-08-19T02:18:14;14.33;;;11.50;;
8349;SDS011;60699;48.946;8.412;2022-08-19T02:20:41;14.33;;;11.93;;
8349;SDS011;60699;48.946;8.412;2022-08-19T02:23:08;15.60;;;12.03;;
8349;SDS011;60699;48.946;8.412;2022-08-19T02:25:36;13.53;;;11.47;;
8349;SDS011;60699;48.946;8.412;2022-08-19T02:28:03;14.87;;;10.97;;
8349;SDS011;60699;48.946;8.412;2022-08-19T02:30:31;12.73;;;11.37;;
8349;SDS011;60699;48.946;8.412;2022-08-19T02:32:59;12.07;;;10.80;;
8349;SDS011;60699;48.946;8.412;2022-08-19T02:35:26;14.40;;;11.43;;
8349;SDS011;60699;48.946;8.412;2022-08-19T02:37:53;14.30;;;11.50;;
8349;SDS011;60699;48.946;8.412;2022-08-19T02:40:37;13.30;;;10.63;;
8349;SDS011;60699;48.946;8.412;2022-08-19T02:43:05;14.17;;;11.40;;
8349;SDS011;60699;48.946;8.412;2022-08-19T02:45:33;12.73;;;11.40;;
8349;SDS011;60699;48.946;8.412;2022-08-19T02:48:02;12.40;;;11.10;;
8349;SDS011;60699;48.946;8.412;2022-08-19T02:50:30;12.40;;;11.03;;
8349;SDS011;60699;48.946;8.412;2022-08-19T02:52:57;13.33;;;11.40;;
8349;SDS011;60699;48.946;8.412;2022-08-19T02:55:24;14.17;;;11.60;;
8349;SDS011;60699;48.946;8.412;2022-08-19T02:57:51;15.13;;;12.23;;
8349;SDS011;60699;48.946;8.412;2022-08-19T03:00:18;14.80;;;11.63;;
8349;SDS011;60699;48.946;8.412;2022-08-19T03:02:45;14.97;;;11.60;;
8349;SDS011;60699;48.946;8.412;2022-08-19T03:05:15;14.77;;;11.00;;
8349;SDS011;60699;48.946;8.412;2022-08-19T03:07:42;14.20;;;11.77;;
8349;SDS011;60699;48.946;8.412;2022-08-19T03:10:09;13.37;;;11.50;;
8349;SDS011;60699;48.946;8.412;2022-08-19T03:12:36;17.30;;;11.83;;
8349;SDS011;60699;48.946;8.412;2022-08-19T03:15:04;15.33;;;12.10;;
8349;SDS011;60699;48.946;8.412;2022-08-19T03:17:33;17.73;;;12.80;;
8349;SDS011;60699;48.946;8.412;2022-08-19T03:20:00;14.23;;;11.73;;
8349;SDS011;60699;48.946;8.412;2022-08-19T03:22:29;17.30;;;12.50;;
8349;SDS011;60699;48.946;8.412;2022-08-19T03:24:56;13.53;;;12.13;;
8349;SDS011;60699;48.946;8.412;2022-08-19T03:27:24;17.13;;;12.40;;
8349;SDS011;60699;48.946;8.412;2022-08-19T03:29:52;18.63;;;12.10;;
8349;SDS011;60699;48.946;8.412;2022-08-19T03:32:19;16.50;;;11.73;;
8349;SDS011;60699;48.946;8.412;2022-08-19T03:34:46;16.50;;;12.60;;
8349;SDS011;60699;48.946;8.412;2022-08-19T03:37:14;17.90;;;12.30;;
8349;SDS011;60699;48.946;8.412;2022-08-19T03:39:42;15.27;;;11.47;;
8349;SDS011;60699;48.946;8.412;2022-08-19T03:42:09;15.27;;;12.03;;
8349;SDS011;60699;48.946;8.412;2022-08-19T03:44:37;13.70;;;12.00;;
8349;SDS011;60699;48.946;8.412;2022-08-19T03:47:04;14.70;;;12.10;;
8349;SDS011;60699;48.946;8.412;2022-08-19T03:49:31;15.67;;;12.13;;
8349;SDS011;60699;48.946;8.412;2022-08-19T03:52:00;16.33;;;12.10;;
8349;SDS011;60699;48.946;8.412;2022-08-19T03:54:27;17.23;;;13.07;;
8349;SDS011;60699;48.946;8.412;2022-08-19T03:56:56;15.27;;;11.70;;
8349;SDS011;60699;48.946;8.412;2022-08-19T03:59:24;15.83;;;12.47;;
8349;SDS011;60699;48.946;8.412;2022-08-19T04:01:51;16.50;;;12.07;;
8349;SDS011;60699;48.946;8.412;2022-08-19T04:04:19;18.10;;;13.80;;
8349;SDS011;60699;48.946;8.412;2022-08-19T04:06:46;16.50;;;13.60;;
8349;SDS011;60699;48.946;8.412;2022-08-19T04:09:14;17.83;;;14.03;;
8349;SDS011;60699;48.946;8.412;2022-08-19T04:11:45;20.70;;;13.53;;
8349;SDS011;60699;48.946;8.412;2022-08-19T04:14:14;15.83;;;11.53;;
8349;SDS011;60699;48.946;8.412;2022-08-19T04:16:42;17.57;;;13.30;;
8349;SDS011;60699;48.946;8.412;2022-08-19T04:19:09;17.03;;;13.40;;
8349;SDS011;60699;48.946;8.412;2022-08-19T04:21:36;17.83;;;13.40;;
8349;SDS011;60699;48.946;8.412;2022-08-19T04:24:04;16.83;;;12.87;;
8349;SDS011;60699;48.946;8.412;2022-08-19T04:26:32;16.23;;;12.53;;
8349;SDS011;60699;48.946;8.412;2022-08-19T04:28:59;17.77;;;12.67;;
8349;SDS011;60699;48.946;8.412;2022-08-19T04:31:29;18.50;;;14.20;;
8349;SDS011;60699;48.946;8.412;2022-08-19T04:33:58;19.20;;;13.70;;
8349;SDS011;60699;48.946;8.412;2022-08-19T04:36:26;17.63;;;13.23;;
8349;SDS011;60699;48.946;8.412;2022-08-19T04:38:54;15.97;;;13.47;;
8349;SDS011;60699;48.946;8.412;2022-08-19T04:41:22;14.33;;;12.50;;
8349;SDS011;60699;48.946;8.412;2022-08-19T04:44:06;17.83;;;13.43;;
8349;SDS011;60699;48.946;8.412;2022-08-19T04:46:35;16.83;;;12.87;;
8349;SDS011;60699;48.946;8.412;2022-08-19T04:49:03;16.73;;;13.67;;
8349;SDS011;60699;48.946;8.412;2022-08-19T04:51:31;17.57;;;13.03;;
8349;SDS011;60699;48.946;8.412;2022-08-19T04:53:58;21.17;;;14.53;;
8349;SDS011;60699;48.946;8.412;2022-08-19T04:56:26;17.37;;;13.10;;
8349;SDS011;60699;48.946;8.412;2022-08-19T04:58:54;16.93;;;13.27;;
8349;SDS011;60699;48.946;8.412;2022-08-19T05:01:22;20.40;;;13.73;;
8349;SDS011;60699;48.946;8.412;2022-08-19T05:03:52;15.53;;;13.40;;
8349;SDS011;60699;48.946;8.412;2022-08-19T05:06:20;21.87;;;13.87;;
8349;SDS011;60699;48.946;8.412;2022-08-19T05:08:47;16.73;;;13.47;;
8349;SDS011;60699;48.946;8.412;2022-08-19T05:11:15;14.30;;;11.50;;
8349;SDS011;60699;48.946;8.412;2022-08-19T05:13:43;16.17;;;13.93;;
8349;SDS011;60699;48.946;8.412;2022-08-19T05:16:12;17.50;;;14.63;;
8349;SDS011;60699;48.946;8.412;2022-08-19T05:18:39;17.83;;;13.10;;
8349;SDS011;60699;48.946;8.412;2022-08-19T05:21:26;15.70;;;13.50;;
8349;SDS011;60699;48.946;8.412;2022-08-19T05:24:11;21.23;;;14.13;;
8349;SDS011;60699;48.946;8.412;2022-08-19T05:26:39;18.80;;;13.70;;
8349;SDS011;60699;48.946;8.412;2022-08-19T05:29:07;15.97;;;13.57;;
8349;SDS011;60699;48.946;8.412;2022-08-19T05:31:35;18.17;;;13.30;;
8349;SDS011;60699;48.946;8.412;2022-08-19T05:34:03;18.33;;;13.80;;
8349;SDS011;60699;48.946;8.412;2022-08-19T05:36:34;21.30;;;14.90;;
8349;SDS011;60699;48.946;8.412;2022-08-19T05:39:03;17.33;;;13.13;;
8349;SDS011;60699;48.946;8.412;2022-08-19T05:41:30;16.70;;;13.53;;
8349;SDS011;60699;48.946;8.412;2022-08-19T05:43:57;16.20;;;12.60;;
8349;SDS011;60699;48.946;8.412;2022-08-19T05:46:25;20.37;;;14.50;;
8349;SDS011;60699;48.946;8.412;2022-08-19T05:48:52;18.80;;;13.67;;
8349;SDS011;60699;48.946;8.412;2022-08-19T05:51:21;21.03;;;14.47;;
8349;SDS011;60699;48.946;8.412;2022-08-19T05:53:49;19.27;;;13.70;;
8349;SDS011;60699;48.946;8.412;2022-08-19T05:56:17;18.50;;;13.20;;
8349;SDS011;60699;48.946;8.412;2022-08-19T05:58:45;18.33;;;14.13;;
8349;SDS011;60699;48.946;8.412;2022-08-19T06:01:14;21.97;;;15.60;;
8349;SDS011;60699;48.946;8.412;2022-08-19T06:03:41;18.90;;;14.40;;
8349;SDS011;60699;48.946;8.412;2022-08-19T06:06:09;20.30;;;14.30;;
8349;SDS011;60699;48.946;8.412;2022-08-19T06:08:37;20.13;;;13.20;;
8349;SDS011;60699;48.946;8.412;2022-08-19T06:11:16;20.20;;;14.03;;
8349;SDS011;60699;48.946;8.412;2022-08-19T06:13:43;23.10;;;16.00;;
8349;SDS011;60699;48.946;8.412;2022-08-19T06:16:13;20.20;;;14.00;;
8349;SDS011;60699;48.946;8.412;2022-08-19T06:18:44;18.73;;;14.83;;
8349;SDS011;60699;48.946;8.412;2022-08-19T06:21:11;21.80;;;13.97;;
8349;SDS011;60699;48.946;8.412;2022-08-19T06:23:39;19.43;;;15.33;;
8349;SDS011;60699;48.946;8.412;2022-08-19T06:26:07;21.90;;;15.20;;
8349;SDS011;60699;48.946;8.412;2022-08-19T06:28:39;17.87;;;13.80;;
8349;SDS011;60699;48.946;8.412;2022-08-19T06:31:07;21.43;;;15.20;;
8349;SDS011;60699;48.946;8.412;2022-08-19T06:33:34;19.03;;;14.10;;
8349;SDS011;60699;48.946;8.412;2022-08-19T06:36:02;16.93;;;14.40;;
8349;SDS011;60699;48.946;8.412;2022-08-19T06:38:29;20.93;;;14.63;;
8349;SDS011;60699;48.946;8.412;2022-08-19T06:40:59;20.10;;;13.90;;
8349;SDS011;60699;48.946;8.412;2022-08-19T06:43:26;20.60;;;15.60;;
8349;SDS011;60699;48.946;8.412;2022-08-19T06:45:55;21.33;;;15.17;;
8349;SDS011;60699;48.946;8.412;2022-08-19T06:48:23;19.80;;;16.00;;
8349;SDS011;60699;48.946;8.412;2022-08-19T06:50:51;20.23;;;14.47;;
8349;SDS011;60699;48.946;8.412;2022-08-19T06:53:18;23.27;;;16.90;;
8349;SDS011;60699;48.946;8.412;2022-08-19T06:55:45;24.60;;;16.53;;
8349;SDS011;60699;48.946;8.412;2022-08-19T06:58:12;20.87;;;15.50;;
8349;SDS011;60699;48.946;8.412;2022-08-19T07:00:39;15.60;;;13.33;;
8349;SDS011;60699;48.946;8.412;2022-08-19T07:03:07;20.73;;;14.33;;
8349;SDS011;60699;48.946;8.412;2022-08-19T07:05:38;19.60;;;14.57;;
8349;SDS011;60699;48.946;8.412;2022-08-19T07:08:05;22.90;;;15.90;;
8349;SDS011;60699;48.946;8.412;2022-08-19T07:10:32;21.97;;;13.30;;
8349;SDS011;60699;48.946;8.412;2022-08-19T07:13:01;18.83;;;14.93;;
8349;SDS011;60699;48.946;8.412;2022-08-19T07:15:28;17.67;;;12.60;;
8349;SDS011;60699;48.946;8.412;2022-08-19T07:17:55;15.87;;;12.73;;
8349;SDS011;60699;48.946;8.412;2022-08-19T07:20:24;19.90;;;15.43;;
8349;SDS011;60699;48.946;8.412;2022-08-19T07:22:51;18.00;;;13.50;;
8349;SDS011;60699;48.946;8.412;2022-08-19T07:25:18;15.93;;;13.23;;
8349;SDS011;60699;48.946;8.412;2022-08-19T07:27:48;16.30;;;13.70;;
8349;SDS011;60699;48.946;8.412;2022-08-19T07:30:16;19.50;;;14.20;;
8349;SDS011;60699;48.946;8.412;2022-08-19T07:32:43;16.30;;;12.90;;
8349;SDS011;60699;48.946;8.412;2022-08-19T07:35:10;21.57;;;13.47;;
8349;SDS011;60699;48.946;8.412;2022-08-19T07:37:38;23.60;;;12.90;;
8349;SDS011;60699;48.946;8.412;2022-08-19T07:40:09;18.63;;;14.03;;
8349;SDS011;60699;48.946;8.412;2022-08-19T07:42:36;18.50;;;14.33;;
8349;SDS011;60699;48.946;8.412;2022-08-19T07:45:04;16.53;;;13.37;;
8349;SDS011;60699;48.946;8.412;2022-08-19T07:47:31;20.67;;;14.03;;
8349;SDS011;60699;48.946;8.412;2022-08-19T07:49:58;14.80;;;13.30;;
8349;SDS011;60699;48.946;8.412;2022-08-19T07:52:25;26.30;;;13.53;;
8349;SDS011;60699;48.946;8.412;2022-08-19T07:54:53;17.23;;;13.33;;
8349;SDS011;60699;48.946;8.412;2022-08-19T07:57:20;16.50;;;12.20;;
8349;SDS011;60699;48.946;8.412;2022-08-19T07:59:47;14.90;;;12.23;;
8349;SDS011;60699;48.946;8.412;2022-08-19T08:02:14;18.20;;;13.60;;
8349;SDS011;60699;48.946;8.412;2022-08-19T08:04:41;17.33;;;12.13;;
8349;SDS011;60699;48.946;8.412;2022-08-19T08:07:26;17.17;;;13.43;;
8349;SDS011;60699;48.946;8.412;2022-08-19T08:10:12;16.80;;;11.83;;
8349;SDS011;60699;48.946;8.412;2022-08-19T08:12:39;16.77;;;11.03;;
8349;SDS011;60699;48.946;8.412;2022-08-19T08:15:07;18.27;;;11.47;;
8349;SDS011;60699;48.946;8.412;2022-08-19T08:17:35;13.60;;;11.37;;
8349;SDS011;60699;48.946;8.412;2022-08-19T08:20:03;20.20;;;12.63;;
8349;SDS011;60699;48.946;8.412;2022-08-19T08:22:31;13.57;;;10.97;;
8349;SDS011;60699;48.946;8.412;2022-08-19T08:25:18;14.03;;;11.37;;
8349;SDS011;60699;48.946;8.412;2022-08-19T08:27:46;14.47;;;10.97;;
8349;SDS011;60699;48.946;8.412;2022-08-19T08:30:16;14.47;;;10.93;;
8349;SDS011;60699;48.946;8.412;2022-08-19T08:32:43;11.70;;;10.60;;
8349;SDS011;60699;48.946;8.412;2022-08-19T08:35:12;13.83;;;11.37;;
8349;SDS011;60699;48.946;8.412;2022-08-19T08:37:39;13.00;;;11.40;;
8349;SDS011;60699;48.946;8.412;2022-08-19T08:40:09;14.63;;;10.90;;
8349;SDS011;60699;48.946;8.412;2022-08-19T08:42:40;13.10;;;11.50;;
8349;SDS011;60699;48.946;8.412;2022-08-19T08:45:11;13.63;;;10.53;;
8349;SDS011;60699;48.946;8.412;2022-08-19T08:47:41;12.70;;;10.13;;
8349;SDS011;60699;48.946;8.412;2022-08-19T08:50:12;16.60;;;12.40;;
8349;SDS011;60699;48.946;8.412;2022-08-19T08:52:42;13.57;;;10.90;;
8349;SDS011;60699;48.946;8.412;2022-08-19T08:55:13;15.13;;;10.60;;
8349;SDS011;60699;48.946;8.412;2022-08-19T08:57:44;11.40;;;8.40;;
8349;SDS011;60699;48.946;8.412;2022-08-19T09:00:17;13.07;;;10.80;;
8349;SDS011;60699;48.946;8.412;2022-08-19T09:02:44;12.27;;;9.53;;
8349;SDS011;60699;48.946;8.412;2022-08-19T09:05:11;11.93;;;10.43;;
8349;SDS011;60699;48.946;8.412;2022-08-19T09:07:41;12.60;;;11.27;;
8349;SDS011;60699;48.946;8.412;2022-08-19T09:10:13;11.23;;;9.07;;
8349;SDS011;60699;48.946;8.412;2022-08-19T09:12:45;10.70;;;7.80;;
8349;SDS011;60699;48.946;8.412;2022-08-19T09:15:15;9.13;;;7.87;;
8349;SDS011;60699;48.946;8.412;2022-08-19T09:17:43;11.60;;;8.13;;
8349;SDS011;60699;48.946;8.412;2022-08-19T09:20:14;11.30;;;8.10;;
8349;SDS011;60699;48.946;8.412;2022-08-19T09:22:43;8.73;;;7.83;;
8349;SDS011;60699;48.946;8.412;2022-08-19T09:25:11;9.13;;;7.67;;
8349;SDS011;60699;48.946;8.412;2022-08-19T09:27:39;8.03;;;7.27;;
8349;SDS011;60699;48.946;8.412;2022-08-19T09:30:09;9.10;;;7.43;;
8349;SDS011;60699;48.946;8.412;2022-08-19T09:32:36;9.43;;;7.13;;
8349;SDS011;60699;48.946;8.412;2022-08-19T09:35:07;6.83;;;6.10;;
8349;SDS011;60699;48.946;8.412;2022-08-19T09:37:34;8.00;;;6.60;;
8349;SDS011;60699;48.946;8.412;2022-08-19T09:40:01;7.43;;;6.70;;
8349;SDS011;60699;48.946;8.412;2022-08-19T09:42:28;10.40;;;7.40;;
8349;SDS011;60699;48.946;8.412;2022-08-19T09:44:55;8.53;;;7.57;;
8349;SDS011;60699;48.946;8.412;2022-08-19T09:47:24;8.43;;;7.70;;
8349;SDS011;60699;48.946;8.412;2022-08-19T09:49:51;8.73;;;7.87;;
8349;SDS011;60699;48.946;8.412;2022-08-19T09:52:18;10.30;;;8.13;;
8349;SDS011;60699;48.946;8.412;2022-08-19T09:54:45;7.93;;;7.13;;
8349;SDS011;60699;48.946;8.412;2022-08-19T09:57:12;8.60;;;7.33;;
8349;SDS011;60699;48.946;8.412;2022-08-19T09:59:39;9.70;;;7.20;;
8349;SDS011;60699;48.946;8.412;2022-08-19T10:02:06;10.57;;;8.00;;
8349;SDS011;60699;48.946;8.412;2022-08-19T10:04:36;9.23;;;7.23;;
8349;SDS011;60699;48.946;8.412;2022-08-19T10:07:21;7.73;;;5.70;;
8349;SDS011;60699;48.946;8.412;2022-08-19T10:09:48;7.60;;;6.77;;
8349;SDS011;60699;48.946;8.412;2022-08-19T10:12:15;7.57;;;6.93;;
8349;SDS011;60699;48.946;8.412;2022-08-19T10:14:42;8.63;;;7.10;;
8349;SDS011;60699;48.946;8.412;2022-08-19T10:17:09;8.40;;;7.17;;
8349;SDS011;60699;48.946;8.412;2022-08-19T10:19:38;6.80;;;6.10;;
8349;SDS011;60699;48.946;8.412;2022-08-19T10:22:06;7.87;;;6.87;;
8349;SDS011;60699;48.946;8.412;2022-08-19T10:24:33;7.17;;;6.47;;
8349;SDS011;60699;48.946;8.412;2022-08-19T10:27:00;7.83;;;6.60;;
8349;SDS011;60699;48.946;8.412;2022-08-19T10:29:28;7.37;;;6.67;;
8349;SDS011;60699;48.946;8.412;2022-08-19T10:31:56;7.93;;;6.40;;
8349;SDS011;60699;48.946;8.412;2022-08-19T10:34:25;9.83;;;7.53;;
8349;SDS011;60699;48.946;8.412;2022-08-19T10:36:53;9.40;;;7.30;;
8349;SDS011;60699;48.946;8.412;2022-08-19T10:39:21;8.47;;;6.67;;
8349;SDS011;60699;48.946;8.412;2022-08-19T10:41:48;6.80;;;6.20;;
8349;SDS011;60699;48.946;8.412;2022-08-19T10:44:15;8.67;;;7.83;;
8349;SDS011;60699;48.946;8.412;2022-08-19T10:46:43;7.13;;;6.30;;
8349;SDS011;60699;48.946;8.412;2022-08-19T10:49:12;9.07;;;8.27;;
8349;SDS011;60699;48.946;8.412;2022-08-19T10:51:39;9.80;;;7.77;;
8349;SDS011;60699;48.946;8.412;2022-08-19T10:54:25;10.03;;;7.80;;
8349;SDS011;60699;48.946;8.412;2022-08-19T10:57:13;7.90;;;7.20;;
8349;SDS011;60699;48.946;8.412;2022-08-19T10:59:39;8.10;;;7.40;;
8349;SDS011;60699;48.946;8.412;2022-08-19T11:02:07;9.57;;;6.97;;
8349;SDS011;60699;48.946;8.412;2022-08-19T11:04:34;9.10;;;7.70;;
8349;SDS011;60699;48.946;8.412;2022-08-19T11:07:02;7.77;;;7.07;;
8349;SDS011;60699;48.946;8.412;2022-08-19T11:09:31;7.10;;;6.57;;
8349;SDS011;60699;48.946;8.412;2022-08-19T11:11:58;8.50;;;7.67;;
8349;SDS011;60699;48.946;8.412;2022-08-19T11:14:25;8.07;;;7.30;;
8349;SDS011;60699;48.946;8.412;2022-08-19T11:16:53;8.57;;;7.77;;
8349;SDS011;60699;48.946;8.412;2022-08-19T11:19:21;10.53;;;8.07;;
8349;SDS011;60699;48.946;8.412;2022-08-19T11:21:49;8.93;;;8.00;;
8349;SDS011;60699;48.946;8.412;2022-08-19T11:24:16;10.40;;;7.23;;
8349;SDS011;60699;48.946;8.412;2022-08-19T11:26:46;8.30;;;7.50;;
8349;SDS011;60699;48.946;8.412;2022-08-19T11:29:14;8.03;;;7.33;;
8349;SDS011;60699;48.946;8.412;2022-08-19T11:31:43;8.30;;;7.60;;
8349;SDS011;60699;48.946;8.412;2022-08-19T11:34:11;8.33;;;7.60;;
8349;SDS011;60699;48.946;8.412;2022-08-19T11:36:40;10.30;;;7.63;;
8349;SDS011;60699;48.946;8.412;2022-08-19T11:39:07;10.77;;;8.03;;
8349;SDS011;60699;48.946;8.412;2022-08-19T11:41:35;8.80;;;8.00;;
8349;SDS011;60699;48.946;8.412;2022-08-19T11:44:03;8.13;;;7.43;;
8349;SDS011;60699;48.946;8.412;2022-08-19T11:46:31;9.17;;;8.27;;
8349;SDS011;60699;48.946;8.412;2022-08-19T11:48:59;8.27;;;7.57;;
8349;SDS011;60699;48.946;8.412;2022-08-19T11:51:26;8.30;;;7.40;;
8349;SDS011;60699;48.946;8.412;2022-08-19T11:53:54;8.33;;;7.63;;
8349;SDS011;60699;48.946;8.412;2022-08-19T11:56:21;7.83;;;6.83;;
8349;SDS011;60699;48.946;8.412;2022-08-19T11:58:49;8.17;;;7.47;;
8349;SDS011;60699;48.946;8.412;2022-08-19T12:01:19;8.43;;;7.40;;
8349;SDS011;60699;48.946;8.412;2022-08-19T12:03:47;8.27;;;7.40;;
8349;SDS011;60699;48.946;8.412;2022-08-19T12:06:15;8.73;;;8.00;;
8349;SDS011;60699;48.946;8.412;2022-08-19T12:08:43;9.30;;;7.80;;
8349;SDS011;60699;48.946;8.412;2022-08-19T12:11:12;8.47;;;7.67;;
8349;SDS011;60699;48.946;8.412;2022-08-19T12:13:40;8.30;;;7.60;;
8349;SDS011;60699;48.946;8.412;2022-08-19T12:16:10;8.90;;;8.00;;
8349;SDS011;60699;48.946;8.412;2022-08-19T12:18:39;8.67;;;7.93;;
8349;SDS011;60699;48.946;8.412;2022-08-19T12:21:08;8.63;;;7.83;;
8349;SDS011;60699;48.946;8.412;2022-08-19T12:23:36;8.07;;;7.37;;
8349;SDS011;60699;48.946;8.412;2022-08-19T12:26:03;8.67;;;7.00;;
8349;SDS011;60699;48.946;8.412;2022-08-19T12:28:30;9.40;;;8.40;;
8349;SDS011;60699;48.946;8.412;2022-08-19T12:30:57;12.00;;;8.80;;
8349;SDS011;60699;48.946;8.412;2022-08-19T12:33:25;8.63;;;7.90;;
8349;SDS011;60699;48.946;8.412;2022-08-19T12:35:54;9.30;;;8.40;;
8349;SDS011;60699;48.946;8.412;2022-08-19T12:38:21;8.77;;;7.97;;
8349;SDS011;60699;48.946;8.412;2022-08-19T12:40:49;8.60;;;7.60;;
8349;SDS011;60699;48.946;8.412;2022-08-19T12:43:17;8.80;;;7.40;;
8349;SDS011;60699;48.946;8.412;2022-08-19T12:45:44;10.50;;;9.00;;
8349;SDS011;60699;48.946;8.412;2022-08-19T12:48:11;9.70;;;8.77;;
8349;SDS011;60699;48.946;8.412;2022-08-19T12:50:39;9.80;;;6.97;;
8349;SDS011;60699;48.946;8.412;2022-08-19T12:53:07;8.30;;;7.50;;
8349;SDS011;60699;48.946;8.412;2022-08-19T12:55:34;7.83;;;7.20;;
8349;SDS011;60699;48.946;8.412;2022-08-19T12:58:01;8.30;;;7.50;;
8349;SDS011;60699;48.946;8.412;2022-08-19T13:00:28;13.47;;;8.03;;
8349;SDS011;60699;48.946;8.412;2022-08-19T13:02:57;6.83;;;6.33;;
8349;SDS011;60699;48.946;8.412;2022-08-19T13:05:27;7.70;;;7.00;;
8349;SDS011;60699;48.946;8.412;2022-08-19T13:07:55;8.03;;;7.30;;
8349;SDS011;60699;48.946;8.412;2022-08-19T13:10:26;8.43;;;7.63;;
8349;SDS011;60699;48.946;8.412;2022-08-19T13:12:53;10.17;;;8.77;;
8349;SDS011;60699;48.946;8.412;2022-08-19T13:15:21;12.70;;;7.03;;
8349;SDS011;60699;48.946;8.412;2022-08-19T13:17:49;7.03;;;6.43;;
8349;SDS011;60699;48.946;8.412;2022-08-19T13:20:18;8.27;;;7.00;;
8349;SDS011;60699;48.946;8.412;2022-08-19T13:22:45;6.90;;;6.30;;
8349;SDS011;60699;48.946;8.412;2022-08-19T13:25:13;6.60;;;6.00;;
8349;SDS011;60699;48.946;8.412;2022-08-19T13:27:43;6.40;;;5.87;;
8349;SDS011;60699;48.946;8.412;2022-08-19T13:30:11;5.40;;;5.00;;
8349;SDS011;60699;48.946;8.412;2022-08-19T13:32:56;5.67;;;5.20;;
8349;SDS011;60699;48.946;8.412;2022-08-19T13:35:39;5.80;;;5.37;;
8349;SDS011;60699;48.946;8.412;2022-08-19T13:38:07;7.33;;;5.77;;
8349;SDS011;60699;48.946;8.412;2022-08-19T13:40:35;6.03;;;5.13;;
8349;SDS011;60699;48.946;8.412;2022-08-19T13:43:04;6.20;;;5.70;;
8349;SDS011;60699;48.946;8.412;2022-08-19T13:45:32;5.80;;;5.30;;
8349;SDS011;60699;48.946;8.412;2022-08-19T13:48:00;5.93;;;5.43;;
8349;SDS011;60699;48.946;8.412;2022-08-19T13:50:31;4.90;;;4.50;;
8349;SDS011;60699;48.946;8.412;2022-08-19T13:52:59;6.27;;;4.30;;
8349;SDS011;60699;48.946;8.412;2022-08-19T13:55:26;4.90;;;4.50;;
8349;SDS011;60699;48.946;8.412;2022-08-19T13:57:54;3.87;;;3.57;;
8349;SDS011;60699;48.946;8.412;2022-08-19T14:00:23;4.73;;;4.37;;
8349;SDS011;60699;48.946;8.412;2022-08-19T14:02:52;4.93;;;4.20;;
8349;SDS011;60699;48.946;8.412;2022-08-19T14:05:19;4.70;;;4.27;;
8349;SDS011;60699;48.946;8.412;2022-08-19T14:07:46;3.93;;;3.63;;
8349;SDS011;60699;48.946;8.412;2022-08-19T14:10:14;4.67;;;4.27;;
8349;SDS011;60699;48.946;8.412;2022-08-19T14:12:41;4.17;;;3.40;;
8349;SDS011;60699;48.946;8.412;2022-08-19T14:15:09;4.00;;;3.80;;
8349;SDS011;60699;48.946;8.412;2022-08-19T14:17:38;4.43;;;3.97;;
8349;SDS011;60699;48.946;8.412;2022-08-19T14:20:06;5.03;;;4.63;;
8349;SDS011;60699;48.946;8.412;2022-08-19T14:22:34;4.57;;;4.17;;
8349;SDS011;60699;48.946;8.412;2022-08-19T14:25:01;4.53;;;4.13;;
8349;SDS011;60699;48.946;8.412;2022-08-19T14:27:29;4.50;;;4.20;;
8349;SDS011;60699;48.946;8.412;2022-08-19T14:29:56;4.70;;;4.30;;
8349;SDS011;60699;48.946;8.412;2022-08-19T14:32:23;4.80;;;4.07;;
8349;SDS011;60699;48.946;8.412;2022-08-19T14:34:53;4.40;;;4.10;;
8349;SDS011;60699;48.946;8.412;2022-08-19T14:37:20;4.43;;;4.13;;
8349;SDS011;60699;48.946;8.412;2022-08-19T14:39:47;4.90;;;4.50;;
8349;SDS011;60699;48.946;8.412;2022-08-19T14:42:14;5.40;;;5.00;;
8349;SDS011;60699;48.946;8.412;2022-08-19T14:44:42;5.20;;;4.70;;
8349;SDS011;60699;48.946;8.412;2022-08-19T14:47:09;4.67;;;4.37;;
8349;SDS011;60699;48.946;8.412;2022-08-19T14:49:36;4.67;;;4.30;;